Time;durP1;ratioP1;P1;durP2;ratioP2;P2;SDS_P1;SDS_P2;PMS_P1;PMS_P2;Temp;Humidity;BMP_temperature;BMP_pressure;BME280_temperature;BME280_humidity;BME280_pressure;Samples;Min_cycle;Max_cycle;Signal;HPM_P1;HPM_P2
2022/11/22 00:00:36;;;;;;;13.02;8.20;;;3.80;99.90;;;;;;4664128;28;9999668;-72
2022/11/22 00:03:01;;;;;;;14.60;8.70;;;3.80;99.90;;;;;;5008802;28;20366;-72
2022/11/22 00:05:27;;;;;;;15.90;8.68;;;3.80;99.90;;;;;;5007634;28;20373;-72
2022/11/22 00:07:52;;;;;;;11.85;8.20;;;3.70;99.90;;;;;;5006022;28;20167;-72
2022/11/22 00:10:18;;;;;;;11.05;8.35;;;3.70;99.90;;;;;;5006310;28;20034;-72
2022/11/22 00:12:44;;;;;;;10.70;8.43;;;3.70;99.90;;;;;;5004444;28;20658;-72
2022/11/22 00:15:11;;;;;;;12.38;8.63;;;3.70;99.90;;;;;;5011137;28;20953;-72
2022/11/22 00:17:37;;;;;;;14.57;8.38;;;3.70;99.90;;;;;;5008743;28;20036;-71
2022/11/22 00:20:05;;;;;;;12.60;8.32;;;3.70;99.90;;;;;;5012548;28;20024;-72
2022/11/22 00:22:31;;;;;;;15.00;8.60;;;3.70;99.90;;;;;;5006532;28;20575;-72
2022/11/22 00:24:57;;;;;;;11.63;7.97;;;3.60;99.90;;;;;;5006004;28;20030;-72
2022/11/22 00:27:22;;;;;;;11.55;7.95;;;3.70;99.90;;;;;;5007261;28;20087;-72
2022/11/22 00:29:48;;;;;;;17.40;8.35;;;3.60;99.90;;;;;;5007329;28;20381;-72
2022/11/22 00:32:14;;;;;;;13.00;7.75;;;3.70;99.90;;;;;;5005184;28;20279;-72
2022/11/22 00:34:40;;;;;;;11.02;7.55;;;3.70;99.90;;;;;;5000976;28;20048;-72
2022/11/22 00:37:06;;;;;;;11.48;7.78;;;3.60;99.90;;;;;;5009721;28;20390;-72
2022/11/22 00:39:32;;;;;;;12.90;7.85;;;3.60;99.90;;;;;;5013039;28;20072;-72
2022/11/22 00:41:57;;;;;;;15.02;7.55;;;3.60;99.90;;;;;;5003616;28;20039;-72
2022/11/22 00:44:23;;;;;;;11.45;7.20;;;3.60;99.90;;;;;;5006875;28;20029;-72
2022/11/22 00:46:49;;;;;;;10.90;6.68;;;3.60;99.90;;;;;;5009180;28;20033;-72
2022/11/22 00:49:14;;;;;;;10.38;6.53;;;3.70;99.90;;;;;;5010348;28;20105;-72
2022/11/22 00:51:40;;;;;;;13.18;7.40;;;3.60;99.90;;;;;;5005732;28;20095;-72
2022/11/22 00:54:06;;;;;;;11.77;7.22;;;3.70;99.90;;;;;;5008890;28;20046;-72
2022/11/22 00:56:32;;;;;;;11.52;7.35;;;3.70;99.90;;;;;;5006821;28;20045;-73
2022/11/22 00:58:57;;;;;;;10.48;6.70;;;3.70;99.90;;;;;;5004789;28;20388;-73
2022/11/22 01:01:23;;;;;;;14.75;7.47;;;3.70;99.90;;;;;;5006444;28;20825;-72
2022/11/22 01:03:49;;;;;;;14.02;7.43;;;3.70;99.90;;;;;;5003295;28;20034;-72
2022/11/22 01:06:14;;;;;;;16.35;8.18;;;3.70;99.90;;;;;;5009714;28;20029;-73
2022/11/22 01:08:40;;;;;;;14.38;7.78;;;3.70;99.90;;;;;;5006833;28;20041;-72
2022/11/22 01:11:05;;;;;;;11.73;7.80;;;3.70;99.90;;;;;;5002906;28;20068;-73
2022/11/22 01:13:32;;;;;;;14.80;7.53;;;3.70;99.90;;;;;;5008029;28;20087;-72
2022/11/22 01:16:04;;;;;;;10.88;7.55;;;3.70;99.90;;;;;;5007456;28;20747;-72
2022/11/22 01:18:30;;;;;;;16.13;7.88;;;3.70;99.90;;;;;;5012911;28;20119;-72
2022/11/22 01:20:56;;;;;;;10.93;7.03;;;3.70;99.90;;;;;;5002449;28;20506;-72
2022/11/22 01:23:21;;;;;;;14.82;7.13;;;3.70;99.90;;;;;;5002724;28;20033;-72
2022/11/22 01:25:47;;;;;;;12.20;7.07;;;3.80;99.90;;;;;;5007730;28;20263;-72
2022/11/22 01:28:13;;;;;;;14.27;6.72;;;3.80;99.90;;;;;;5007900;28;20033;-72
2022/11/22 01:30:40;;;;;;;15.07;7.07;;;3.90;99.90;;;;;;5008143;28;20271;-72
2022/11/22 01:33:05;;;;;;;11.20;6.93;;;3.90;99.90;;;;;;5006059;28;20073;-72
2022/11/22 01:35:31;;;;;;;10.30;6.45;;;3.90;99.90;;;;;;5006695;28;20124;-72
2022/11/22 01:37:57;;;;;;;12.32;6.57;;;3.90;99.90;;;;;;5008225;28;20032;-72
2022/11/22 01:40:23;;;;;;;9.93;6.30;;;3.90;99.90;;;;;;5008389;28;20053;-72
2022/11/22 01:42:52;;;;;;;10.88;6.32;;;4.00;99.90;;;;;;5007943;28;20065;-72
2022/11/22 01:45:30;;;;;;;9.50;6.32;;;4.00;99.90;;;;;;5002445;28;20113;-72
2022/11/22 01:48:10;;;;;;;9.85;6.47;;;4.00;99.90;;;;;;5008342;28;20030;-72
2022/11/22 01:50:39;;;;;;;13.52;6.43;;;4.00;99.90;;;;;;5011854;28;20392;-72
2022/11/22 01:53:17;;;;;;;10.38;6.70;;;4.10;99.90;;;;;;5009379;28;20128;-72
2022/11/22 01:55:44;;;;;;;16.77;6.40;;;4.10;99.90;;;;;;5011615;28;20319;-72
2022/11/22 01:58:13;;;;;;;15.05;7.00;;;4.10;99.90;;;;;;5008579;28;20120;-73
2022/11/22 02:00:39;;;;;;;11.90;6.18;;;4.10;99.90;;;;;;5013741;28;20033;-72
2022/11/22 02:03:07;;;;;;;10.57;6.32;;;4.00;99.90;;;;;;5009005;28;20032;-73
2022/11/22 02:05:34;;;;;;;10.07;5.95;;;4.00;99.90;;;;;;5008166;28;20478;-73
2022/11/22 02:08:17;;;;;;;11.18;6.15;;;4.00;99.90;;;;;;5013896;28;20087;-73
2022/11/22 02:10:48;;;;;;;11.43;6.22;;;4.10;99.90;;;;;;5008862;28;20070;-73
2022/11/22 02:13:15;;;;;;;11.63;6.22;;;4.00;99.90;;;;;;5010666;28;20418;-72
2022/11/22 02:15:41;;;;;;;10.20;5.68;;;4.00;99.90;;;;;;5010988;28;20041;-73
2022/11/22 02:18:08;;;;;;;10.15;5.88;;;4.00;99.90;;;;;;5013682;28;20497;-73
2022/11/22 02:20:34;;;;;;;12.75;6.35;;;4.00;99.90;;;;;;5016047;28;21469;-73
2022/11/22 02:23:25;;;;;;;11.18;5.90;;;4.00;99.90;;;;;;5006183;28;20091;-73
2022/11/22 02:25:51;;;;;;;9.23;5.72;;;4.00;99.90;;;;;;5010135;28;20041;-73
2022/11/22 02:28:17;;;;;;;10.30;5.60;;;4.10;99.90;;;;;;5013769;28;20250;-72
2022/11/22 02:30:43;;;;;;;12.40;5.90;;;4.10;99.90;;;;;;5011848;28;20056;-72
2022/11/22 02:33:09;;;;;;;9.60;5.05;;;4.10;99.90;;;;;;5007670;28;20037;-72
2022/11/22 02:35:35;;;;;;;8.15;5.53;;;4.10;99.90;;;;;;5007797;28;20042;-72
2022/11/22 02:38:11;;;;;;;12.63;5.70;;;4.10;99.90;;;;;;5004822;28;20443;-73
2022/11/22 02:41:02;;;;;;;9.95;5.18;;;4.10;99.90;;;;;;5010982;28;20091;-72
2022/11/22 02:43:38;;;;;;;12.07;5.50;;;4.10;99.90;;;;;;5007483;28;20983;-72
2022/11/22 02:46:06;;;;;;;13.45;5.32;;;4.20;99.90;;;;;;5013927;28;20040;-72
2022/11/22 02:48:32;;;;;;;11.10;5.22;;;4.20;99.90;;;;;;5014759;28;20029;-72
2022/11/22 02:50:58;;;;;;;9.77;5.18;;;4.20;99.90;;;;;;5016168;28;20210;-72
2022/11/22 02:53:23;;;;;;;7.78;4.65;;;4.20;99.90;;;;;;5014691;28;20061;-72
2022/11/22 02:55:49;;;;;;;8.25;5.00;;;4.20;99.90;;;;;;5015138;28;20040;-72
2022/11/22 02:58:15;;;;;;;7.53;4.80;;;4.20;99.90;;;;;;5017134;28;20121;-72
2022/11/22 03:00:41;;;;;;;7.60;4.70;;;4.20;99.90;;;;;;5009163;28;20064;-72
2022/11/22 03:03:06;;;;;;;8.38;4.72;;;4.20;99.90;;;;;;4992984;28;20623;-72
2022/11/22 03:05:32;;;;;;;10.60;5.00;;;4.20;99.90;;;;;;5014684;28;20039;-72
2022/11/22 03:07:58;;;;;;;11.23;5.07;;;4.30;99.90;;;;;;5008373;28;20076;-72
2022/11/22 03:10:24;;;;;;;10.48;4.95;;;4.30;99.90;;;;;;5013515;28;20157;-72
2022/11/22 03:12:50;;;;;;;10.98;4.97;;;4.30;99.90;;;;;;5006913;28;20383;-72
2022/11/22 03:15:16;;;;;;;8.85;4.57;;;4.30;99.90;;;;;;5006447;28;20033;-72
2022/11/22 03:17:41;;;;;;;10.02;5.18;;;4.40;99.90;;;;;;5014175;28;20025;-72
2022/11/22 03:20:07;;;;;;;10.02;4.70;;;4.30;99.90;;;;;;5009133;28;20054;-72
2022/11/22 03:22:33;;;;;;;8.50;4.80;;;4.30;99.90;;;;;;5010032;28;20041;-72
2022/11/22 03:24:59;;;;;;;11.27;5.57;;;4.30;99.90;;;;;;5003302;28;20288;-72
2022/11/22 03:27:24;;;;;;;8.52;4.65;;;4.30;99.90;;;;;;5004892;28;20481;-72
2022/11/22 03:29:50;;;;;;;14.57;5.47;;;4.30;99.90;;;;;;5005616;28;20030;-72
2022/11/22 03:32:16;;;;;;;12.60;5.60;;;4.30;99.90;;;;;;5011265;28;20081;-72
2022/11/22 03:34:41;;;;;;;11.43;5.50;;;4.30;99.90;;;;;;5008339;28;20551;-72
2022/11/22 03:37:07;;;;;;;8.50;5.18;;;4.40;99.90;;;;;;5014290;28;20029;-72
2022/11/22 03:39:32;;;;;;;9.57;5.25;;;4.30;99.90;;;;;;5009077;28;20388;-72
2022/11/22 03:41:58;;;;;;;13.10;5.32;;;4.40;99.90;;;;;;5012298;28;20576;-71
2022/11/22 03:44:24;;;;;;;9.90;5.45;;;4.40;99.90;;;;;;5013918;28;20116;-72
2022/11/22 03:46:49;;;;;;;8.27;5.10;;;4.40;99.90;;;;;;5010089;28;20018;-71
2022/11/22 03:49:15;;;;;;;10.02;5.53;;;4.40;99.90;;;;;;5014229;28;20189;-72
2022/11/22 03:51:40;;;;;;;9.93;5.15;;;4.40;99.90;;;;;;5013544;28;20493;-72
2022/11/22 03:54:06;;;;;;;14.02;5.82;;;4.40;99.90;;;;;;5006261;28;20034;-72
2022/11/22 03:56:32;;;;;;;10.60;5.70;;;4.40;99.90;;;;;;5005232;28;22323;-72
2022/11/22 03:58:57;;;;;;;10.25;5.53;;;4.40;99.90;;;;;;5018443;28;20088;-72
2022/11/22 04:01:23;;;;;;;12.25;5.97;;;4.40;99.90;;;;;;5015793;28;20041;-72
2022/11/22 04:03:49;;;;;;;10.23;5.60;;;4.50;99.90;;;;;;5010832;28;20025;-71
2022/11/22 04:06:14;;;;;;;9.98;5.93;;;4.40;99.90;;;;;;5014643;28;20033;-71
2022/11/22 04:08:40;;;;;;;8.63;5.40;;;4.40;99.90;;;;;;5007502;28;20435;-71
2022/11/22 04:11:05;;;;;;;10.25;5.70;;;4.40;99.90;;;;;;5005972;28;20026;-71
2022/11/22 04:16:15;;;;;;;10.40;6.00;;;4.40;99.90;;;;;;5005918;28;20227;-71
2022/11/22 04:18:41;;;;;;;8.60;5.30;;;4.40;99.90;;;;;;5013903;28;20873;-72
2022/11/22 04:25:12;;;;;;;9.40;5.75;;;4.40;99.90;;;;;;5010276;28;20115;-71
2022/11/22 04:26:36;;;;;;;9.13;5.85;;;4.40;99.90;;;;;;5006141;28;20029;-72
2022/11/22 04:29:03;;;;;;;9.57;5.50;;;4.40;99.90;;;;;;5011043;28;20793;-72
2022/11/22 04:34:13;;;;;;;12.88;6.88;;;4.40;99.90;;;;;;5009529;28;20095;-72
2022/11/22 04:36:38;;;;;;;12.43;7.22;;;4.40;99.90;;;;;;5010951;28;20033;-72
2022/11/22 04:39:04;;;;;;;17.65;10.90;;;4.40;99.90;;;;;;5015261;28;20489;-72
2022/11/22 04:41:29;;;;;;;15.68;9.65;;;4.40;99.90;;;;;;5014496;28;20437;-72
2022/11/22 04:46:39;;;;;;;22.38;13.70;;;4.40;99.90;;;;;;5016339;28;20101;-72
2022/11/22 04:49:05;;;;;;;24.15;14.25;;;4.40;99.90;;;;;;5014720;28;20113;-72
2022/11/22 04:54:14;;;;;;;14.60;7.68;;;4.50;99.90;;;;;;5009357;28;20049;-72
2022/11/22 04:56:40;;;;;;;13.07;8.30;;;4.50;99.90;;;;;;5011137;28;20254;-72
2022/11/22 04:59:05;;;;;;;10.18;7.15;;;4.50;99.90;;;;;;5009678;28;20025;-72
2022/11/22 05:01:31;;;;;;;10.23;6.57;;;4.50;99.90;;;;;;5009258;28;20080;-72
2022/11/22 05:03:57;;;;;;;8.55;6.18;;;4.50;99.90;;;;;;5011582;28;20108;-71
2022/11/22 05:06:22;;;;;;;10.75;6.22;;;4.50;99.90;;;;;;5005320;28;20438;-72
2022/11/22 05:08:48;;;;;;;12.13;6.50;;;4.50;99.90;;;;;;5009046;28;20273;-72
2022/11/22 05:11:13;;;;;;;9.45;6.70;;;4.50;99.90;;;;;;4992566;28;20022;-72
2022/11/22 05:13:41;;;;;;;10.35;6.72;;;4.50;99.90;;;;;;5006903;28;20308;-72
2022/11/22 05:16:09;;;;;;;9.27;6.68;;;4.50;99.90;;;;;;5019751;28;20324;-72
2022/11/22 05:18:35;;;;;;;10.60;6.68;;;4.50;99.90;;;;;;5014196;28;20048;-72
2022/11/22 05:21:13;;;;;;;9.23;6.57;;;4.60;99.90;;;;;;5014436;28;20037;-72
2022/11/22 05:23:54;;;;;;;11.32;6.57;;;4.60;99.90;;;;;;5022455;28;20383;-72
2022/11/22 05:26:28;;;;;;;8.13;6.30;;;4.60;99.90;;;;;;5027143;28;20014;-72
2022/11/22 05:28:54;;;;;;;8.88;6.07;;;4.60;99.90;;;;;;5016014;28;20075;-72
2022/11/22 05:31:22;;;;;;;10.32;5.95;;;4.60;99.90;;;;;;5015372;28;20045;-72
2022/11/22 05:33:48;;;;;;;8.70;6.10;;;4.60;99.90;;;;;;5012619;28;20464;-72
2022/11/22 05:36:14;;;;;;;11.85;6.32;;;4.60;99.90;;;;;;5016670;28;20292;-72
2022/11/22 05:38:40;;;;;;;8.95;6.30;;;4.60;99.90;;;;;;5017471;28;20010;-72
2022/11/22 05:41:09;;;;;;;9.88;6.18;;;4.70;99.90;;;;;;5015930;28;20044;-72
2022/11/22 05:43:35;;;;;;;10.77;6.43;;;4.70;99.90;;;;;;5013364;28;20026;-72
2022/11/22 05:46:08;;;;;;;10.18;6.65;;;4.70;99.90;;;;;;5016700;28;20026;-72
2022/11/22 05:48:34;;;;;;;9.18;6.40;;;4.70;99.90;;;;;;5011751;28;20026;-72
2022/11/22 05:51:08;;;;;;;13.20;6.97;;;4.80;99.90;;;;;;5010755;28;20709;-72
2022/11/22 05:53:35;;;;;;;17.77;9.60;;;4.80;99.90;;;;;;5010549;28;20037;-73
2022/11/22 05:56:09;;;;;;;21.48;10.93;;;4.80;99.90;;;;;;5016847;28;20397;-73
2022/11/22 05:58:34;;;;;;;13.73;8.05;;;4.80;99.90;;;;;;5015414;28;20040;-72
2022/11/22 06:01:06;;;;;;;8.95;6.50;;;4.80;99.90;;;;;;5017815;28;20886;-72
2022/11/22 06:03:33;;;;;;;8.35;6.32;;;4.80;99.90;;;;;;5008254;28;20503;-73
2022/11/22 06:05:58;;;;;;;11.15;6.38;;;4.80;99.90;;;;;;5010547;28;20029;-72
2022/11/22 06:08:27;;;;;;;9.68;6.75;;;4.80;99.90;;;;;;5015660;28;20283;-72
2022/11/22 06:10:52;;;;;;;11.10;7.38;;;4.90;99.90;;;;;;5019414;28;20473;-72
2022/11/22 06:13:18;;;;;;;10.32;7.60;;;4.90;99.90;;;;;;5009651;28;20049;-72
2022/11/22 06:15:43;;;;;;;12.63;7.78;;;4.90;99.90;;;;;;5017101;28;20029;-72
2022/11/22 06:18:09;;;;;;;11.75;7.85;;;5.00;99.90;;;;;;5009164;28;20050;-72
2022/11/22 06:20:34;;;;;;;16.88;8.50;;;4.90;99.90;;;;;;5011552;28;20045;-72
2022/11/22 06:23:00;;;;;;;11.10;8.40;;;5.00;99.90;;;;;;5006563;28;20022;-72
2022/11/22 06:25:26;;;;;;;10.68;7.30;;;5.00;99.90;;;;;;5011635;28;20498;-72
2022/11/22 06:27:51;;;;;;;12.55;7.65;;;5.00;99.90;;;;;;5010429;28;20135;-72
2022/11/22 06:30:17;;;;;;;10.65;6.90;;;5.00;99.90;;;;;;5017403;28;20026;-72
2022/11/22 06:32:42;;;;;;;12.02;7.40;;;5.00;99.90;;;;;;5017605;28;20132;-72
2022/11/22 06:35:08;;;;;;;10.25;6.70;;;5.00;99.90;;;;;;5013140;28;20025;-72
2022/11/22 06:37:34;;;;;;;10.18;6.63;;;5.00;99.90;;;;;;5019266;28;20026;-72
2022/11/22 06:40:00;;;;;;;10.95;6.32;;;5.00;99.90;;;;;;5012955;28;20026;-72
2022/11/22 06:42:25;;;;;;;9.13;6.32;;;5.10;99.90;;;;;;5007729;28;20026;-72
2022/11/22 06:44:51;;;;;;;10.50;6.20;;;5.10;99.90;;;;;;5012192;28;20502;-72
2022/11/22 06:47:17;;;;;;;9.38;6.70;;;5.10;99.90;;;;;;5020223;28;20079;-72
2022/11/22 06:49:44;;;;;;;12.35;7.20;;;5.00;99.90;;;;;;5014812;28;20489;-72
2022/11/22 06:52:09;;;;;;;11.52;7.50;;;5.10;99.90;;;;;;5016109;28;21877;-72
2022/11/22 06:54:35;;;;;;;10.82;7.50;;;5.10;99.90;;;;;;5011440;28;20087;-72
2022/11/22 06:57:01;;;;;;;12.77;7.63;;;5.10;99.90;;;;;;5016295;28;20029;-73
2022/11/22 06:59:26;;;;;;;11.13;7.97;;;5.00;99.90;;;;;;5018081;28;20030;-73
2022/11/22 07:01:52;;;;;;;10.18;7.00;;;5.00;99.90;;;;;;5006745;28;20062;-72
2022/11/22 07:04:18;;;;;;;9.05;6.50;;;5.10;99.90;;;;;;5010699;28;20813;-73
2022/11/22 07:06:43;;;;;;;11.40;7.60;;;5.10;99.90;;;;;;5009963;28;20022;-73
2022/11/22 07:09:10;;;;;;;11.57;7.68;;;5.10;99.90;;;;;;5013725;28;20083;-72
2022/11/22 07:11:36;;;;;;;9.95;7.38;;;5.10;99.90;;;;;;5013194;28;20080;-72
2022/11/22 07:14:03;;;;;;;14.50;7.35;;;5.10;99.90;;;;;;5010288;28;20033;-72
2022/11/22 07:16:29;;;;;;;13.48;7.50;;;5.10;99.90;;;;;;5014022;28;20033;-73
2022/11/22 07:18:55;;;;;;;13.90;8.07;;;5.20;99.90;;;;;;5010553;28;20065;-73
2022/11/22 07:21:22;;;;;;;14.43;7.90;;;5.20;99.90;;;;;;5012261;28;20500;-73
2022/11/22 07:23:50;;;;;;;16.98;8.35;;;5.20;99.90;;;;;;5009855;28;20029;-73
2022/11/22 07:26:17;;;;;;;15.65;9.02;;;5.20;99.90;;;;;;5012406;28;20017;-72
2022/11/22 07:28:43;;;;;;;14.35;8.13;;;5.30;99.90;;;;;;5021711;28;20029;-72
2022/11/22 07:31:10;;;;;;;13.57;8.50;;;5.30;99.90;;;;;;5007671;28;20048;-72
2022/11/22 07:33:36;;;;;;;17.63;9.75;;;5.30;99.90;;;;;;5010301;28;20057;-71
2022/11/22 07:36:23;;;;;;;14.98;8.95;;;5.30;99.90;;;;;;5004983;28;20057;-72
2022/11/22 07:38:50;;;;;;;15.30;8.68;;;5.30;99.90;;;;;;5002603;28;20045;-72
2022/11/22 07:41:17;;;;;;;17.15;9.20;;;5.40;99.90;;;;;;5017123;28;20034;-72
2022/11/22 07:43:43;;;;;;;14.55;8.65;;;5.40;99.90;;;;;;5012120;28;20048;-72
2022/11/22 07:46:21;;;;;;;17.58;9.02;;;5.50;99.90;;;;;;5002321;28;20480;-72
2022/11/22 07:48:48;;;;;;;14.98;8.77;;;5.50;99.90;;;;;;5006249;28;20045;-72
2022/11/22 07:51:14;;;;;;;12.75;8.77;;;5.50;99.90;;;;;;5004512;28;20040;-73
2022/11/22 07:53:40;;;;;;;18.98;10.05;;;5.50;99.90;;;;;;5008924;28;20345;-72
2022/11/22 07:56:06;;;;;;;16.35;9.65;;;5.60;99.90;;;;;;5010622;28;20037;-73
2022/11/22 07:58:33;;;;;;;18.05;10.43;;;5.60;99.90;;;;;;5010030;28;20087;-73
2022/11/22 08:01:13;;;;;;;20.10;10.82;;;5.60;99.90;;;;;;5015144;28;20237;-72
2022/11/22 08:03:39;;;;;;;18.10;8.35;;;5.60;99.90;;;;;;5013316;28;20029;-72
2022/11/22 08:06:07;;;;;;;15.00;8.30;;;5.70;99.90;;;;;;5018409;28;20040;-73
2022/11/22 08:08:34;;;;;;;19.40;8.50;;;5.80;99.90;;;;;;5013639;28;20033;-73
2022/11/22 08:11:00;;;;;;;20.73;8.90;;;5.80;99.90;;;;;;5011522;28;20911;-73
2022/11/22 08:13:25;;;;;;;17.63;7.97;;;5.80;99.90;;;;;;5005077;28;20557;-73
2022/11/22 08:15:51;;;;;;;16.30;8.50;;;5.60;99.90;;;;;;5008498;28;20294;-73
2022/11/22 08:18:17;;;;;;;16.98;7.40;;;5.70;99.90;;;;;;5013093;28;20527;-73
2022/11/22 08:20:42;;;;;;;15.57;8.05;;;5.60;99.90;;;;;;5013435;28;20026;-74
2022/11/22 08:23:08;;;;;;;15.32;8.35;;;5.70;99.90;;;;;;5015636;28;20048;-73
2022/11/22 08:25:34;;;;;;;17.30;9.30;;;5.60;99.90;;;;;;5017322;28;20120;-73
2022/11/22 08:27:59;;;;;;;16.88;9.13;;;5.60;99.90;;;;;;5016772;28;20049;-73
2022/11/22 08:30:25;;;;;;;22.00;9.43;;;5.60;99.90;;;;;;5014429;28;20065;-73
2022/11/22 08:32:54;;;;;;;17.90;8.95;;;5.60;99.90;;;;;;5013166;28;20026;-73
2022/11/22 08:35:19;;;;;;;19.08;9.98;;;5.60;99.90;;;;;;5007907;28;20116;-73
2022/11/22 08:37:45;;;;;;;18.05;9.02;;;5.60;99.90;;;;;;5016620;28;21276;-73
2022/11/22 08:40:11;;;;;;;15.70;9.55;;;5.60;99.90;;;;;;5016312;28;20167;-73
2022/11/22 08:42:36;;;;;;;19.75;10.60;;;5.60;99.90;;;;;;5013728;28;20026;-73
2022/11/22 08:45:03;;;;;;;29.85;13.02;;;5.60;99.90;;;;;;5013760;28;20021;-73
2022/11/22 08:47:29;;;;;;;19.52;10.57;;;5.60;99.90;;;;;;5016352;28;20045;-73
2022/11/22 08:49:55;;;;;;;16.25;10.07;;;5.70;99.90;;;;;;5015133;28;20045;-73
2022/11/22 08:52:20;;;;;;;18.23;10.05;;;5.70;99.90;;;;;;5009865;28;20025;-72
2022/11/22 08:54:46;;;;;;;19.85;10.02;;;5.70;99.90;;;;;;5008309;28;20026;-73
2022/11/22 08:57:12;;;;;;;19.52;10.20;;;5.70;99.90;;;;;;5011721;28;20017;-73
2022/11/22 08:59:38;;;;;;;14.77;9.32;;;5.70;99.90;;;;;;5011498;28;20029;-73
2022/11/22 09:02:03;;;;;;;23.23;10.38;;;5.70;99.90;;;;;;5015159;28;20037;-73
2022/11/22 09:04:29;;;;;;;18.65;10.10;;;5.70;99.90;;;;;;5004593;28;20389;-73
2022/11/22 09:06:56;;;;;;;16.90;10.68;;;5.70;99.90;;;;;;5016495;28;20445;-73
2022/11/22 09:09:22;;;;;;;19.45;10.40;;;;;;;;;;5020946;28;20022;-73
2022/11/22 09:11:47;;;;;;;21.98;10.43;;;5.80;99.90;;;;;;5013155;28;20026;-73
2022/11/22 09:14:13;;;;;;;21.60;11.52;;;5.80;99.90;;;;;;5005124;28;20199;-73
2022/11/22 09:16:39;;;;;;;20.05;11.40;;;5.90;99.90;;;;;;5008195;28;20053;-73
2022/11/22 09:19:04;;;;;;;23.00;10.98;;;6.00;99.90;;;;;;5014557;28;20029;-73
2022/11/22 09:21:30;;;;;;;23.02;11.13;;;6.00;99.90;;;;;;5014178;28;20642;-73
2022/11/22 09:23:56;;;;;;;23.02;10.75;;;6.00;99.90;;;;;;5007230;28;20492;-73
2022/11/22 09:26:25;;;;;;;22.17;10.52;;;6.00;99.90;;;;;;5012069;28;20097;-73
2022/11/22 09:28:54;;;;;;;20.27;10.90;;;6.00;99.90;;;;;;5009868;28;20723;-73
2022/11/22 09:31:22;;;;;;;21.38;10.18;;;6.00;99.90;;;;;;5012390;28;20520;-73
2022/11/22 09:33:49;;;;;;;24.65;10.50;;;6.00;99.90;;;;;;5002409;28;20049;-73
2022/11/22 09:36:17;;;;;;;17.85;9.05;;;6.00;99.90;;;;;;5006968;28;20022;-73
2022/11/22 09:38:43;;;;;;;16.00;8.70;;;6.00;99.90;;;;;;5011147;28;20064;-73
2022/11/22 09:41:15;;;;;;;17.70;9.13;;;6.00;99.90;;;;;;5021658;28;20034;-73
2022/11/22 09:44:05;;;;;;;20.23;9.80;;;6.10;99.90;;;;;;5010970;28;20033;-73
2022/11/22 09:46:58;;;;;;;25.75;10.40;;;6.10;99.90;;;;;;5014086;28;20018;-73
2022/11/22 09:49:33;;;;;;;14.27;7.07;;;6.20;99.90;;;;;;5014151;28;20080;-73
2022/11/22 09:52:20;;;;;;;18.90;7.35;;;6.30;99.90;;;;;;5008648;28;20113;-73
2022/11/22 09:54:58;;;;;;;16.20;8.07;;;6.30;99.90;;;;;;5012968;28;20117;-73
2022/11/22 09:57:47;;;;;;;17.77;7.70;;;6.40;99.90;;;;;;5014071;28;20046;-73
2022/11/22 10:00:24;;;;;;;18.05;7.72;;;6.50;99.90;;;;;;5012431;28;20497;-73
2022/11/22 10:03:05;;;;;;;17.55;8.63;;;6.60;99.90;;;;;;5010377;28;20038;-73
2022/11/22 10:05:58;;;;;;;17.02;8.05;;;6.70;99.90;;;;;;5007733;28;20118;-73
2022/11/22 10:08:24;;;;;;;;;;;6.80;99.90;;;;;;5011845;28;20047;-72
2022/11/22 10:10:53;;;;;;;18.50;7.05;;;6.80;99.90;;;;;;5010959;28;19921;-72
2022/11/22 10:13:32;;;;;;;16.50;6.47;;;6.90;99.90;;;;;;5001075;28;20398;-72
2022/11/22 10:16:42;;;;;;;15.90;6.20;;;7.00;99.90;;;;;;5009273;28;20033;-73
2022/11/22 10:19:19;;;;;;;16.08;5.70;;;7.10;99.90;;;;;;5019750;28;20053;-73
2022/11/22 10:21:48;;;;;;;13.60;5.70;;;7.20;99.90;;;;;;5007500;28;20191;-73
2022/11/22 10:24:16;;;;;;;18.40;5.72;;;7.20;99.90;;;;;;5008354;28;20505;-73
2022/11/22 10:26:42;;;;;;;14.90;5.00;;;7.20;99.90;;;;;;5010139;28;20075;-73
2022/11/22 10:29:18;;;;;;;17.25;5.03;;;7.20;99.90;;;;;;5009457;28;20022;-73
2022/11/22 10:31:43;;;;;;;16.50;5.05;;;7.20;99.90;;;;;;5010192;28;20517;-73
2022/11/22 10:34:09;;;;;;;13.68;4.93;;;;;;;;;;5002441;28;20160;-73
2022/11/22 10:36:56;;;;;;;12.77;4.70;;;7.20;99.90;;;;;;5005605;28;20025;-74
2022/11/22 10:39:54;;;;;;;17.33;4.75;;;7.20;99.90;;;;;;5009102;28;20779;-74
2022/11/22 10:42:37;;;;;;;13.93;4.57;;;7.20;99.90;;;;;;5000596;28;20096;-73
2022/11/22 10:45:23;;;;;;;13.52;4.85;;;7.30;99.90;;;;;;5008664;28;20145;-74
2022/11/22 10:47:57;;;;;;;13.82;4.32;;;7.30;99.90;;;;;;5008487;28;20038;-74
2022/11/22 10:50:26;;;;;;;20.42;4.63;;;7.40;99.90;;;;;;5009939;28;20505;-73
2022/11/22 10:53:18;;;;;;;15.43;3.95;;;7.50;99.90;;;;;;5008897;28;20580;-74
2022/11/22 10:56:11;;;;;;;13.30;4.20;;;7.50;99.90;;;;;;5003964;28;20033;-73
2022/11/22 10:58:55;;;;;;;14.20;3.55;;;7.50;99.90;;;;;;5028144;28;20545;-73
2022/11/22 11:01:44;;;;;;;17.38;4.15;;;7.40;99.90;;;;;;5010860;28;20033;-72
2022/11/22 11:04:11;;;;;;;16.02;4.40;;;;;;;;;;5007528;28;20040;-73
2022/11/22 11:06:43;;;;;;;29.77;4.13;;;7.40;99.90;;;;;;5006766;28;20030;-74
2022/11/22 11:09:34;;;;;;;12.90;2.77;;;7.50;99.90;;;;;;5004606;28;20749;-73
2022/11/22 11:12:04;;;;;;;12.20;2.53;;;7.40;99.90;;;;;;5003435;28;20390;-72
2022/11/22 11:14:36;;;;;;;15.77;3.17;;;7.40;99.90;;;;;;5002058;28;20033;-73
2022/11/22 11:17:05;;;;;;;12.90;2.60;;;7.30;99.90;;;;;;5005976;28;20029;-73
2022/11/22 11:19:37;;;;;;;11.75;2.47;;;7.30;99.90;;;;;;5005810;28;20500;-73
2022/11/22 11:22:08;;;;;;;13.00;2.75;;;7.30;99.90;;;;;;5001085;28;20129;-73
2022/11/22 11:24:39;;;;;;;17.52;2.97;;;7.30;99.90;;;;;;5006774;28;20018;-73
2022/11/22 11:27:06;;;;;;;14.43;3.10;;;7.40;99.90;;;;;;5007285;28;20029;-73
2022/11/22 11:30:00;;;;;;;15.82;3.40;;;7.40;99.90;;;;;;5006059;28;20026;-73
2022/11/22 11:32:26;;;;;;;9.80;2.83;;;7.50;99.90;;;;;;5005011;28;20383;-73
2022/11/22 11:35:00;;;;;;;21.55;3.25;;;7.60;99.90;;;;;;5005152;28;20030;-73
2022/11/22 11:37:34;;;;;;;7.97;2.25;;;7.70;99.90;;;;;;5004592;28;20037;-73
2022/11/22 11:40:00;;;;;;;14.00;2.58;;;7.60;99.90;;;;;;5003179;28;20033;-73
2022/11/22 11:42:27;;;;;;;12.25;2.38;;;7.60;99.90;;;;;;5001458;28;20064;-73
2022/11/22 11:44:53;;;;;;;13.13;2.50;;;7.60;99.90;;;;;;5009541;28;20033;-73
2022/11/22 11:47:31;;;;;;;12.85;2.40;;;7.70;99.90;;;;;;5003926;28;20033;-73
2022/11/22 11:49:57;;;;;;;20.13;3.53;;;7.70;99.90;;;;;;5006317;28;20017;-73
2022/11/22 11:52:25;;;;;;;9.70;2.38;;;7.60;99.90;;;;;;5002094;28;20776;-73
2022/11/22 11:54:57;;;;;;;9.45;2.50;;;7.60;99.90;;;;;;5002116;28;20037;-73
2022/11/22 11:57:33;;;;;;;14.88;2.67;;;7.60;99.90;;;;;;5009856;28;20068;-73
2022/11/22 12:00:01;;;;;;;9.77;2.42;;;7.50;99.90;;;;;;5007423;28;20042;-73
2022/11/22 12:02:40;;;;;;;12.80;2.65;;;7.50;99.90;;;;;;5006256;28;20051;-73
2022/11/22 12:05:11;;;;;;;10.32;2.40;;;7.40;99.90;;;;;;5011113;28;20065;-73
2022/11/22 12:07:43;;;;;;;10.13;2.53;;;7.50;99.90;;;;;;5009345;28;20030;-73
2022/11/22 12:10:33;;;;;;;7.63;2.20;;;7.50;99.90;;;;;;5027178;28;20026;-73
2022/11/22 12:13:20;;;;;;;11.27;2.65;;;7.50;99.90;;;;;;5006709;28;20026;-73
2022/11/22 12:16:03;;;;;;;13.00;2.97;;;7.50;99.90;;;;;;5001260;28;20252;-73
2022/11/22 12:18:36;;;;;;;11.93;2.75;;;7.50;99.90;;;;;;5003908;28;20041;-73
2022/11/22 12:21:32;;;;;;;12.55;2.05;;;7.50;99.90;;;;;;5005337;28;20591;-73
2022/11/22 12:24:01;;;;;;;9.07;2.28;;;7.50;99.90;;;;;;5007176;28;20120;-73
2022/11/22 12:26:29;;;;;;;9.80;2.15;;;7.40;99.90;;;;;;5006651;28;20037;-73
2022/11/22 12:28:56;;;;;;;12.82;2.28;;;7.40;99.90;;;;;;5007250;28;20033;-73
2022/11/22 12:31:40;;;;;;;12.48;2.58;;;7.50;99.90;;;;;;5005887;28;20053;-73
2022/11/22 12:34:27;;;;;;;8.63;2.30;;;7.50;99.90;;;;;;5003978;28;20083;-73
2022/11/22 12:36:55;;;;;;;10.80;2.22;;;7.40;99.90;;;;;;5007331;28;20094;-73
2022/11/22 12:39:26;;;;;;;10.48;2.60;;;7.40;99.90;;;;;;5004955;28;20741;-73
2022/11/22 12:42:14;;;;;;;8.70;2.10;;;7.30;99.90;;;;;;5001395;28;20037;-73
2022/11/22 12:44:48;;;;;;;9.80;2.40;;;7.40;99.90;;;;;;5003077;28;20060;-73
2022/11/22 12:47:19;;;;;;;8.98;2.03;;;7.40;99.90;;;;;;5002144;28;20540;-73
2022/11/22 12:49:50;;;;;;;10.52;2.40;;;7.40;99.90;;;;;;5006824;28;20033;-73
2022/11/22 12:52:25;;;;;;;9.32;2.10;;;7.40;99.90;;;;;;5004477;28;20030;-73
2022/11/22 12:55:19;;;;;;;11.55;2.17;;;7.40;99.90;;;;;;5002820;28;20098;-73
2022/11/22 12:58:02;;;;;;;10.02;2.50;;;7.40;99.90;;;;;;5005944;28;20033;-73
2022/11/22 13:00:33;;;;;;;7.85;2.22;;;7.40;99.90;;;;;;5006655;28;20026;-74
2022/11/22 13:03:00;;;;;;;11.85;2.75;;;7.40;99.90;;;;;;5004259;28;20074;-73
2022/11/22 13:05:30;;;;;;;9.60;1.80;;;7.40;99.90;;;;;;5001277;28;20029;-73
2022/11/22 13:08:22;;;;;;;11.57;2.50;;;7.40;99.90;;;;;;5002705;28;20030;-73
2022/11/22 13:10:53;;;;;;;10.88;2.20;;;7.40;99.90;;;;;;5004254;28;20026;-73
2022/11/22 13:13:30;;;;;;;7.75;2.00;;;7.40;99.90;;;;;;5003397;28;20650;-74